createdAt,value
2023-05-24T00:01:56.177Z,12.21
2023-05-24T00:05:21.359Z,12.2
2023-05-24T00:08:46.583Z,12.2
2023-05-24T00:12:11.795Z,12.23
2023-05-24T00:15:37.005Z,12.25
2023-05-24T00:19:02.237Z,12.25
2023-05-24T00:22:27.426Z,12.23
2023-05-24T00:25:52.672Z,12.18
2023-05-24T00:29:17.894Z,12.1
2023-05-24T00:32:43.155Z,12.07
2023-05-24T00:36:08.366Z,12
2023-05-24T00:39:33.609Z,11.96
2023-05-24T00:42:58.823Z,11.97
2023-05-24T00:46:24.072Z,11.97
2023-05-24T00:49:49.256Z,11.97
2023-05-24T00:53:14.519Z,11.92
2023-05-24T00:56:39.683Z,11.98
2023-05-24T01:00:04.875Z,12.02
2023-05-24T01:03:30.153Z,12.03
2023-05-24T01:06:55.361Z,12.08
2023-05-24T01:10:20.614Z,12.14
2023-05-24T01:13:45.806Z,12.21
2023-05-24T01:17:11.009Z,12.23
2023-05-24T01:20:36.295Z,12.24
2023-05-24T01:24:01.454Z,12.25
2023-05-24T01:27:26.703Z,12.31
2023-05-24T01:30:51.892Z,12.35
2023-05-24T01:34:17.081Z,12.35
2023-05-24T01:37:42.294Z,12.34
2023-05-24T01:41:07.504Z,12.32
2023-05-24T01:44:32.722Z,12.34
2023-05-24T01:47:57.933Z,12.35
2023-05-24T01:51:23.147Z,12.33
2023-05-24T01:54:48.357Z,12.34
2023-05-24T01:58:13.573Z,12.32
2023-05-24T02:01:38.854Z,12.32
2023-05-24T02:05:03.970Z,12.25
2023-05-24T02:08:29.186Z,12.15
2023-05-24T02:11:54.398Z,12.09
2023-05-24T02:15:19.592Z,12.02
2023-05-24T02:18:44.861Z,11.97
2023-05-24T02:22:10.024Z,11.91
2023-05-24T02:25:35.218Z,11.89
2023-05-24T02:29:00.424Z,11.9
2023-05-24T02:32:25.649Z,11.91
2023-05-24T02:35:50.877Z,11.89
2023-05-24T02:39:16.046Z,11.86
2023-05-24T02:42:41.267Z,11.83
2023-05-24T02:46:06.507Z,11.78
2023-05-24T02:49:31.706Z,11.81
2023-05-24T02:52:56.950Z,11.79
2023-05-24T02:56:22.137Z,11.71
2023-05-24T02:59:47.338Z,11.64
2023-05-24T03:03:12.603Z,11.6
2023-05-24T03:06:37.798Z,11.57
2023-05-24T03:10:03.044Z,11.59
2023-05-24T03:13:28.271Z,11.6
2023-05-24T03:16:53.493Z,11.59
2023-05-24T03:20:18.728Z,11.54
2023-05-24T03:23:43.925Z,11.5
2023-05-24T03:27:09.185Z,11.54
2023-05-24T03:30:34.352Z,11.52
2023-05-24T03:33:59.601Z,11.53
2023-05-24T03:37:24.813Z,11.49
2023-05-24T03:40:50.037Z,11.48
2023-05-24T03:44:15.286Z,11.48
2023-05-24T03:47:40.525Z,11.48
2023-05-24T03:51:05.721Z,11.47
2023-05-24T03:54:30.945Z,11.48
2023-05-24T03:57:56.209Z,11.51
2023-05-24T04:01:32.452Z,11.56
2023-05-24T04:04:46.675Z,11.54
2023-05-24T04:08:11.895Z,11.49
2023-05-24T04:11:37.129Z,11.45
2023-05-24T04:15:02.336Z,11.41
2023-05-24T04:18:27.661Z,11.33
2023-05-24T04:21:52.755Z,11.24
2023-05-24T04:25:18.042Z,11.2
2023-05-24T04:28:43.219Z,11.18
2023-05-24T04:32:08.444Z,11.16
2023-05-24T04:35:33.672Z,11.13
2023-05-24T04:38:59.179Z,11.09
2023-05-24T04:42:24.422Z,11.12
2023-05-24T04:45:49.664Z,11.18
2023-05-24T04:49:14.905Z,11.19
2023-05-24T04:52:40.170Z,11.21
2023-05-24T04:56:05.404Z,11.22
2023-05-24T04:59:30.985Z,11.22
2023-05-24T05:02:56.271Z,11.24
2023-05-24T05:06:21.354Z,11.25
2023-05-24T05:09:46.601Z,11.25
2023-05-24T05:13:11.813Z,11.22
2023-05-24T05:16:37.431Z,11.15
2023-05-24T05:20:02.601Z,11.14
2023-05-24T05:23:27.811Z,11.11
2023-05-24T05:26:53.051Z,11.06
2023-05-24T05:30:18.265Z,10.98
2023-05-24T05:33:43.562Z,10.83
2023-05-24T05:37:08.753Z,10.77
2023-05-24T05:40:33.958Z,10.72
2023-05-24T05:43:59.184Z,10.7
2023-05-24T05:47:24.416Z,10.72
2023-05-24T05:50:49.641Z,10.74
2023-05-24T05:54:14.821Z,10.71
2023-05-24T05:57:40.064Z,10.64
2023-05-24T06:01:05.288Z,10.65
2023-05-24T06:04:30.518Z,10.71
2023-05-24T06:07:55.765Z,10.7
2023-05-24T06:11:20.978Z,10.7
2023-05-24T06:14:46.200Z,10.79
2023-05-24T06:18:11.459Z,10.85
2023-05-24T06:21:36.698Z,10.91
2023-05-24T06:25:01.915Z,11.04
2023-05-24T06:28:27.143Z,11.15
2023-05-24T06:31:52.538Z,11.32
2023-05-24T06:35:17.623Z,11.4
2023-05-24T06:38:42.814Z,11.47
2023-05-24T06:42:08.024Z,11.52
2023-05-24T06:45:33.256Z,11.57
2023-05-24T06:48:58.540Z,11.68
2023-05-24T06:52:23.829Z,11.75
2023-05-24T06:55:48.967Z,11.88
2023-05-24T06:59:14.231Z,11.94
2023-05-24T07:02:39.498Z,12.01
2023-05-24T07:06:04.640Z,12.08
2023-05-24T07:09:29.901Z,12.14
2023-05-24T07:12:55.093Z,12.17
2023-05-24T07:16:20.425Z,12.19
2023-05-24T07:19:45.579Z,12.32
2023-05-24T07:23:10.852Z,12.6
2023-05-24T07:26:36.155Z,12.99
2023-05-24T07:30:01.360Z,13.14
2023-05-24T07:33:26.607Z,13.11
2023-05-24T07:36:51.804Z,13.09
2023-05-24T07:40:17.064Z,13.14
2023-05-24T07:43:42.319Z,13.33
2023-05-24T07:47:07.746Z,13.63
2023-05-24T07:50:32.967Z,13.95
2023-05-24T07:53:58.183Z,14.19
2023-05-24T07:57:23.389Z,14.31
2023-05-24T08:00:48.628Z,14.44
2023-05-24T08:04:13.830Z,14.68
2023-05-24T08:07:39.042Z,15.03
2023-05-24T08:11:04.268Z,15.2
2023-05-24T08:14:29.493Z,15.27
2023-05-24T08:17:54.834Z,15.12
2023-05-24T08:21:19.957Z,15
2023-05-24T08:24:45.168Z,15
2023-05-24T08:28:10.417Z,15.18
2023-05-24T08:31:35.637Z,15.36
2023-05-24T08:35:18.046Z,15.49
2023-05-24T08:38:26.070Z,15.6
2023-05-24T08:42:01.286Z,15.64
2023-05-24T08:45:16.557Z,15.58
2023-05-24T08:48:41.808Z,15.43
2023-05-24T08:52:07.127Z,15.33
2023-05-24T08:55:33.321Z,15.28
2023-05-24T08:58:57.527Z,15.25
2023-05-24T09:02:22.760Z,15.23
2023-05-24T09:05:48.001Z,15.27
2023-05-24T09:09:13.288Z,15.38
2023-05-24T09:12:39.189Z,15.45
2023-05-24T09:16:03.679Z,15.39
2023-05-24T09:19:28.958Z,15.3
2023-05-24T09:22:54.221Z,15.29
2023-05-24T09:26:19.467Z,15.3
2023-05-24T09:29:44.693Z,15.3
2023-05-24T09:33:09.952Z,15.2
2023-05-24T09:36:35.163Z,15.11
2023-05-24T09:40:00.535Z,15.09
2023-05-24T09:43:26.472Z,14.99
2023-05-24T09:46:50.930Z,14.94
2023-05-24T09:50:16.231Z,14.96
2023-05-24T09:53:41.322Z,15.11
2023-05-24T09:57:06.598Z,15.18
2023-05-24T10:00:31.848Z,15.3
2023-05-24T10:03:57.124Z,15.4
2023-05-24T10:07:22.306Z,15.55
2023-05-24T10:10:47.545Z,15.78
2023-05-24T10:14:12.778Z,15.97
2023-05-24T10:17:38.165Z,16.139999
2023-05-24T10:21:03.393Z,16.200001
2023-05-24T10:24:28.508Z,16.27
2023-05-24T10:27:53.715Z,16.26
2023-05-24T10:31:19.003Z,16.35
2023-05-24T10:34:44.212Z,16.610001
2023-05-24T10:38:09.380Z,16.700001
2023-05-24T10:41:34.602Z,16.68
2023-05-24T10:44:59.858Z,16.68
2023-05-24T10:48:25.095Z,16.620001
2023-05-24T10:51:50.368Z,16.68
2023-05-24T10:55:15.602Z,16.790001
2023-05-24T10:58:40.804Z,16.940001
2023-05-24T11:02:06.179Z,16.889999
2023-05-24T11:05:31.398Z,17.02
2023-05-24T11:08:56.657Z,17.190001
2023-05-24T11:12:21.875Z,17.41
2023-05-24T11:15:47.128Z,17.49
2023-05-24T11:19:12.365Z,17.57
2023-05-24T11:22:37.701Z,17.540001
2023-05-24T11:26:02.913Z,17.24
2023-05-24T11:29:28.131Z,16.93
2023-05-24T11:32:53.432Z,16.969999
2023-05-24T11:36:18.639Z,17.15
2023-05-24T11:39:44.466Z,17.190001
2023-05-24T11:43:09.727Z,16.969999
2023-05-24T11:46:34.982Z,16.9
2023-05-24T11:50:00.204Z,16.99
2023-05-24T11:53:25.419Z,17.040001
2023-05-24T11:56:50.693Z,17.1
2023-05-24T12:00:15.981Z,17.120001
2023-05-24T12:03:41.295Z,17.280001
2023-05-24T12:07:06.626Z,17.450001
2023-05-24T12:10:31.852Z,17.4
2023-05-24T12:13:57.081Z,17.309999
2023-05-24T12:17:22.358Z,17.18
2023-05-24T12:20:48.624Z,17.15
2023-05-24T12:24:13.479Z,17.219999
2023-05-24T12:27:38.691Z,17.17
2023-05-24T12:31:03.985Z,16.950001
2023-05-24T12:34:29.256Z,16.83
2023-05-24T12:37:54.403Z,16.77
2023-05-24T12:41:19.611Z,16.82
2023-05-24T12:44:44.901Z,16.93
2023-05-24T12:48:10.156Z,17.09
2023-05-24T12:51:35.396Z,17.049999
2023-05-24T12:55:00.647Z,17.040001
2023-05-24T12:58:25.877Z,16.76
2023-05-24T13:01:51.154Z,16.49
2023-05-24T13:05:16.412Z,16.4
2023-05-24T13:08:41.657Z,16.42
2023-05-24T13:12:07.148Z,16.42
2023-05-24T13:15:32.390Z,16.280001
2023-05-24T13:18:57.613Z,16.389999
2023-05-24T13:22:22.825Z,16.530001
2023-05-24T13:25:48.070Z,16.559999
2023-05-24T13:29:27.070Z,16.709999
2023-05-24T13:32:41.001Z,16.799999
2023-05-24T13:36:03.783Z,16.809999
2023-05-24T13:39:29.009Z,16.93
2023-05-24T13:42:54.279Z,17.07
2023-05-24T13:46:19.515Z,17.290001
2023-05-24T13:49:44.690Z,17.26
2023-05-24T13:53:09.909Z,17.139999
2023-05-24T13:56:35.151Z,17.190001
2023-05-24T14:00:00.476Z,17.139999
2023-05-24T14:03:25.601Z,16.969999
2023-05-24T14:06:50.923Z,16.809999
2023-05-24T14:10:17.507Z,16.82
2023-05-24T14:14:07.444Z,16.950001
2023-05-24T14:17:06.668Z,16.969999
2023-05-24T14:20:31.909Z,17.07
2023-05-24T14:23:57.134Z,17.120001
2023-05-24T14:27:22.382Z,16.860001
2023-05-24T14:30:47.638Z,16.59
2023-05-24T14:34:12.896Z,16.540001
2023-05-24T14:37:38.158Z,16.629999
2023-05-24T14:41:03.398Z,16.74
2023-05-24T14:44:28.691Z,16.82
2023-05-24T14:47:54.036Z,17.030001
2023-05-24T14:51:19.380Z,17.15
2023-05-24T14:54:44.550Z,17.07
2023-05-24T14:58:09.814Z,16.91
2023-05-24T15:01:35.110Z,16.799999
2023-05-24T15:05:00.372Z,16.780001
2023-05-24T15:08:25.624Z,16.799999
2023-05-24T15:11:50.813Z,16.76
2023-05-24T15:45:04.547Z,13.87
2023-05-24T15:48:29.694Z,14.87
2023-05-24T15:52:02.527Z,15.14
2023-05-24T15:55:20.279Z,15.29
2023-05-24T15:58:45.522Z,15.42
2023-05-24T16:02:15.212Z,15.51
2023-05-24T16:05:40.426Z,15.57
2023-05-24T16:09:05.710Z,15.59
2023-05-24T16:12:30.957Z,15.63
2023-05-24T16:15:56.201Z,15.61
2023-05-24T16:19:21.497Z,15.64
2023-05-24T16:22:46.755Z,15.66
2023-05-24T16:26:12.008Z,15.64
2023-05-24T16:29:37.324Z,15.56
2023-05-24T16:33:02.590Z,15.5
2023-05-24T16:36:27.811Z,15.44
2023-05-24T16:39:53.104Z,15.42
2023-05-24T16:43:18.319Z,15.39
2023-05-24T16:46:43.611Z,15.35
2023-05-24T16:50:08.849Z,15.29
2023-05-24T16:53:34.152Z,15.32
2023-05-24T16:57:01.334Z,15.33
2023-05-24T17:00:27.014Z,15.34
2023-05-24T17:03:52.488Z,15.3
2023-05-24T17:07:17.696Z,15.28
2023-05-24T17:10:43.086Z,15.28
2023-05-24T17:14:08.237Z,15.28
2023-05-24T17:17:33.576Z,15.21
2023-05-24T17:20:58.854Z,15.17
2023-05-24T17:24:24.045Z,15.18
2023-05-24T17:27:49.379Z,15.19
2023-05-24T17:31:14.687Z,15.16
2023-05-24T17:34:39.917Z,15.06
2023-05-24T17:38:05.167Z,14.93
2023-05-24T17:41:30.413Z,14.86
2023-05-24T17:44:55.700Z,14.76
2023-05-24T17:48:20.979Z,14.67
2023-05-24T17:51:46.251Z,14.59
2023-05-24T17:55:11.465Z,14.54
2023-05-24T17:58:37.496Z,14.54
2023-05-24T18:02:02.044Z,14.54
2023-05-24T18:05:27.312Z,14.53
2023-05-24T18:08:52.582Z,14.52
2023-05-24T18:12:17.819Z,14.5
2023-05-24T18:15:43.255Z,14.46
2023-05-24T18:19:08.347Z,14.41
2023-05-24T18:22:33.514Z,14.32
2023-05-24T18:26:00.283Z,14.31
2023-05-24T18:29:23.969Z,14.24
2023-05-24T18:33:03.052Z,14.2
2023-05-24T18:36:14.559Z,14.17
2023-05-24T18:39:39.744Z,14.16
2023-05-24T18:43:05.007Z,14.16
2023-05-24T18:46:30.335Z,14.15
2023-05-24T18:49:55.549Z,14.13
2023-05-24T18:53:20.827Z,14.06
2023-05-24T18:56:46.087Z,14.03
2023-05-24T19:00:11.352Z,13.99
2023-05-24T19:03:36.563Z,13.91
2023-05-24T19:07:01.987Z,13.85
2023-05-24T19:10:27.261Z,13.82
2023-05-24T19:13:52.445Z,13.76
2023-05-24T19:17:17.653Z,13.72
2023-05-24T19:20:42.977Z,13.66
2023-05-24T19:24:08.234Z,13.63
2023-05-24T19:27:34.931Z,13.58
2023-05-24T19:30:58.691Z,13.54
2023-05-24T19:34:23.936Z,13.52
2023-05-24T19:37:49.191Z,13.47
2023-05-24T19:41:14.443Z,13.43
2023-05-24T19:44:39.737Z,13.4
2023-05-24T19:48:05.030Z,13.39
2023-05-24T19:51:30.215Z,13.35
2023-05-24T19:54:55.447Z,13.3
2023-05-24T19:58:20.690Z,13.26
2023-05-24T20:01:46.001Z,13.22
2023-05-24T20:05:11.131Z,13.13
2023-05-24T20:08:36.376Z,13
2023-05-24T20:12:01.608Z,12.89
2023-05-24T20:15:26.820Z,12.78
2023-05-24T20:18:52.067Z,12.75
2023-05-24T20:22:17.261Z,12.73
2023-05-24T20:25:42.524Z,12.72
2023-05-24T20:29:07.730Z,12.69
2023-05-24T20:32:33.073Z,12.65
2023-05-24T20:35:58.344Z,12.58
2023-05-24T20:39:23.523Z,12.52
2023-05-24T20:42:48.793Z,12.46
2023-05-24T20:46:14.072Z,12.4
2023-05-24T20:49:39.290Z,12.38
2023-05-24T20:53:04.508Z,12.36
2023-05-24T20:56:29.703Z,12.35
2023-05-24T20:59:54.911Z,12.33
2023-05-24T21:03:20.281Z,12.29
2023-05-24T21:06:45.447Z,12.24
2023-05-24T21:10:10.776Z,12.18
2023-05-24T21:13:36.143Z,12.12
2023-05-24T21:17:01.494Z,12.07
2023-05-24T21:20:26.756Z,12.03
2023-05-24T21:23:51.916Z,12
2023-05-24T21:27:17.208Z,11.98
2023-05-24T21:30:42.343Z,11.95
2023-05-24T21:34:07.568Z,11.92
2023-05-24T21:37:32.817Z,11.89
2023-05-24T21:40:58.041Z,11.87
2023-05-24T21:44:23.338Z,11.81
2023-05-24T21:47:48.605Z,11.75
2023-05-24T21:51:13.799Z,11.72
2023-05-24T21:54:39.104Z,11.72
2023-05-24T21:58:04.389Z,11.67
2023-05-24T22:01:29.742Z,11.64
2023-05-24T22:04:54.935Z,11.63
2023-05-24T22:08:20.186Z,11.6
2023-05-24T22:11:47.554Z,11.61
2023-05-24T22:15:12.838Z,11.6
2023-05-24T22:18:38.136Z,11.56
2023-05-24T22:22:03.360Z,11.47
2023-05-24T22:25:28.629Z,11.49
2023-05-24T22:28:53.901Z,11.47
2023-05-24T22:32:19.103Z,11.48
2023-05-24T22:35:44.495Z,11.49
2023-05-24T22:39:09.525Z,11.44
2023-05-24T22:42:34.779Z,11.37
2023-05-24T22:46:00.095Z,11.34
2023-05-24T22:49:25.313Z,11.29
2023-05-24T22:52:50.559Z,11.28
2023-05-24T22:56:15.758Z,11.28
2023-05-24T22:59:41.068Z,11.28
2023-05-24T23:03:06.302Z,11.23
2023-05-24T23:06:31.554Z,11.19
2023-05-24T23:09:56.833Z,11.12
2023-05-24T23:13:22.016Z,11.1
2023-05-24T23:16:47.315Z,11.11
2023-05-24T23:20:12.621Z,11.1
2023-05-24T23:23:37.904Z,11.08
2023-05-24T23:27:03.179Z,11.06
2023-05-24T23:30:28.385Z,11.05
2023-05-24T23:33:53.592Z,11.03
2023-05-24T23:37:18.864Z,11.01
2023-05-24T23:40:44.146Z,10.98
2023-05-24T23:44:09.419Z,10.94
2023-05-24T23:47:34.692Z,10.91
2023-05-24T23:50:59.941Z,10.91
2023-05-24T23:54:25.166Z,10.9
2023-05-24T23:57:50.395Z,10.87
